sensor_id;sensor_type;location;lat;lon;timestamp;P1;durP1;ratioP1;P2;durP2;ratioP2
18239;SDS011;9244;50.828;4.718;2022-07-04T00:00:44;0.97;;;0.97;;
18239;SDS011;9244;50.828;4.718;2022-07-04T00:03:10;1.07;;;0.93;;
18239;SDS011;9244;50.828;4.718;2022-07-04T00:05:36;1.63;;;1.07;;
18239;SDS011;9244;50.828;4.718;2022-07-04T00:08:02;2.30;;;1.10;;
18239;SDS011;9244;50.828;4.718;2022-07-04T00:10:27;1.43;;;1.10;;
18239;SDS011;9244;50.828;4.718;2022-07-04T00:12:53;1.07;;;0.97;;
18239;SDS011;9244;50.828;4.718;2022-07-04T00:15:19;3.03;;;1.20;;
18239;SDS011;9244;50.828;4.718;2022-07-04T00:17:44;0.80;;;0.80;;
18239;SDS011;9244;50.828;4.718;2022-07-04T00:20:10;0.90;;;0.90;;
18239;SDS011;9244;50.828;4.718;2022-07-04T00:22:36;1.90;;;1.00;;
18239;SDS011;9244;50.828;4.718;2022-07-04T00:25:02;1.63;;;0.90;;
18239;SDS011;9244;50.828;4.718;2022-07-04T00:27:29;1.83;;;1.10;;
18239;SDS011;9244;50.828;4.718;2022-07-04T00:29:55;1.30;;;1.20;;
18239;SDS011;9244;50.828;4.718;2022-07-04T00:32:21;0.80;;;0.80;;
18239;SDS011;9244;50.828;4.718;2022-07-04T00:34:47;1.37;;;1.10;;
18239;SDS011;9244;50.828;4.718;2022-07-04T00:37:13;3.40;;;1.30;;
18239;SDS011;9244;50.828;4.718;2022-07-04T00:39:38;1.73;;;1.30;;
18239;SDS011;9244;50.828;4.718;2022-07-04T00:42:04;1.80;;;1.23;;
18239;SDS011;9244;50.828;4.718;2022-07-04T00:44:30;1.00;;;0.97;;
18239;SDS011;9244;50.828;4.718;2022-07-04T00:46:56;2.90;;;1.20;;
18239;SDS011;9244;50.828;4.718;2022-07-04T00:49:22;1.53;;;0.80;;
18239;SDS011;9244;50.828;4.718;2022-07-04T00:51:48;1.60;;;1.13;;
18239;SDS011;9244;50.828;4.718;2022-07-04T00:54:15;2.70;;;1.20;;
18239;SDS011;9244;50.828;4.718;2022-07-04T00:56:43;2.43;;;1.10;;
18239;SDS011;9244;50.828;4.718;2022-07-04T00:59:10;2.70;;;1.20;;
18239;SDS011;9244;50.828;4.718;2022-07-04T01:01:36;1.60;;;1.10;;
18239;SDS011;9244;50.828;4.718;2022-07-04T01:04:03;1.40;;;1.20;;
18239;SDS011;9244;50.828;4.718;2022-07-04T01:06:30;1.10;;;1.03;;
18239;SDS011;9244;50.828;4.718;2022-07-04T01:08:56;2.17;;;1.10;;
18239;SDS011;9244;50.828;4.718;2022-07-04T01:11:22;1.73;;;1.10;;
18239;SDS011;9244;50.828;4.718;2022-07-04T01:13:48;2.83;;;1.10;;
18239;SDS011;9244;50.828;4.718;2022-07-04T01:16:14;2.87;;;1.20;;
18239;SDS011;9244;50.828;4.718;2022-07-04T01:18:40;3.80;;;1.30;;
18239;SDS011;9244;50.828;4.718;2022-07-04T01:21:06;2.73;;;1.27;;
18239;SDS011;9244;50.828;4.718;2022-07-04T01:23:32;1.67;;;1.17;;
18239;SDS011;9244;50.828;4.718;2022-07-04T01:26:04;1.20;;;1.10;;
18239;SDS011;9244;50.828;4.718;2022-07-04T01:28:30;1.30;;;1.20;;
18239;SDS011;9244;50.828;4.718;2022-07-04T01:30:56;2.00;;;1.10;;
18239;SDS011;9244;50.828;4.718;2022-07-04T01:33:22;1.70;;;1.17;;
18239;SDS011;9244;50.828;4.718;2022-07-04T01:35:48;2.20;;;1.33;;
18239;SDS011;9244;50.828;4.718;2022-07-04T01:38:13;2.23;;;1.13;;
18239;SDS011;9244;50.828;4.718;2022-07-04T01:40:39;2.13;;;1.10;;
18239;SDS011;9244;50.828;4.718;2022-07-04T01:43:05;1.73;;;1.00;;
18239;SDS011;9244;50.828;4.718;2022-07-04T01:45:31;2.67;;;1.20;;
18239;SDS011;9244;50.828;4.718;2022-07-04T01:48:03;1.20;;;0.93;;
18239;SDS011;9244;50.828;4.718;2022-07-04T01:50:30;4.17;;;1.60;;
18239;SDS011;9244;50.828;4.718;2022-07-04T01:52:56;1.23;;;1.07;;
18239;SDS011;9244;50.828;4.718;2022-07-04T01:55:21;1.73;;;1.10;;
18239;SDS011;9244;50.828;4.718;2022-07-04T01:57:47;3.27;;;1.20;;
18239;SDS011;9244;50.828;4.718;2022-07-04T02:00:12;2.20;;;1.20;;
18239;SDS011;9244;50.828;4.718;2022-07-04T02:02:57;3.93;;;1.10;;
18239;SDS011;9244;50.828;4.718;2022-07-04T02:05:23;1.00;;;0.90;;
18239;SDS011;9244;50.828;4.718;2022-07-04T02:07:49;1.70;;;1.53;;
18239;SDS011;9244;50.828;4.718;2022-07-04T02:10:15;1.43;;;1.10;;
18239;SDS011;9244;50.828;4.718;2022-07-04T02:12:40;1.57;;;1.33;;
18239;SDS011;9244;50.828;4.718;2022-07-04T02:15:25;1.33;;;1.23;;
18239;SDS011;9244;50.828;4.718;2022-07-04T02:17:51;1.07;;;1.07;;
18239;SDS011;9244;50.828;4.718;2022-07-04T02:20:16;1.47;;;1.10;;
18239;SDS011;9244;50.828;4.718;2022-07-04T02:22:42;2.17;;;1.40;;
18239;SDS011;9244;50.828;4.718;2022-07-04T02:25:08;1.87;;;1.10;;
18239;SDS011;9244;50.828;4.718;2022-07-04T02:27:36;1.30;;;1.20;;
18239;SDS011;9244;50.828;4.718;2022-07-04T02:30:02;1.80;;;1.30;;
18239;SDS011;9244;50.828;4.718;2022-07-04T02:32:28;1.33;;;1.03;;
18239;SDS011;9244;50.828;4.718;2022-07-04T02:34:54;1.60;;;1.50;;
18239;SDS011;9244;50.828;4.718;2022-07-04T02:37:19;1.27;;;1.17;;
18239;SDS011;9244;50.828;4.718;2022-07-04T02:39:45;1.53;;;1.23;;
18239;SDS011;9244;50.828;4.718;2022-07-04T02:42:10;1.37;;;1.10;;
18239;SDS011;9244;50.828;4.718;2022-07-04T02:44:37;2.77;;;1.07;;
18239;SDS011;9244;50.828;4.718;2022-07-04T02:47:02;1.77;;;1.07;;
18239;SDS011;9244;50.828;4.718;2022-07-04T02:49:28;3.70;;;1.33;;
18239;SDS011;9244;50.828;4.718;2022-07-04T02:51:54;1.23;;;1.13;;
18239;SDS011;9244;50.828;4.718;2022-07-04T02:54:19;2.07;;;1.13;;
18239;SDS011;9244;50.828;4.718;2022-07-04T02:56:45;1.70;;;1.40;;
18239;SDS011;9244;50.828;4.718;2022-07-04T02:59:10;4.30;;;1.27;;
18239;SDS011;9244;50.828;4.718;2022-07-04T03:01:36;2.00;;;1.37;;
18239;SDS011;9244;50.828;4.718;2022-07-04T03:04:02;3.30;;;1.13;;
18239;SDS011;9244;50.828;4.718;2022-07-04T03:06:29;2.37;;;1.40;;
18239;SDS011;9244;50.828;4.718;2022-07-04T03:08:54;1.83;;;1.27;;
18239;SDS011;9244;50.828;4.718;2022-07-04T03:11:20;1.83;;;1.20;;
18239;SDS011;9244;50.828;4.718;2022-07-04T03:13:46;2.50;;;1.37;;
18239;SDS011;9244;50.828;4.718;2022-07-04T03:16:11;1.70;;;1.37;;
18239;SDS011;9244;50.828;4.718;2022-07-04T03:18:37;1.70;;;1.20;;
18239;SDS011;9244;50.828;4.718;2022-07-04T03:21:03;1.67;;;1.07;;
18239;SDS011;9244;50.828;4.718;2022-07-04T03:23:32;1.53;;;1.30;;
18239;SDS011;9244;50.828;4.718;2022-07-04T03:25:58;4.33;;;1.40;;
18239;SDS011;9244;50.828;4.718;2022-07-04T03:28:25;3.53;;;1.73;;
18239;SDS011;9244;50.828;4.718;2022-07-04T03:30:51;1.80;;;1.50;;
18239;SDS011;9244;50.828;4.718;2022-07-04T03:33:16;1.60;;;1.50;;
18239;SDS011;9244;50.828;4.718;2022-07-04T03:35:42;1.70;;;1.40;;
18239;SDS011;9244;50.828;4.718;2022-07-04T03:38:08;1.40;;;1.20;;
18239;SDS011;9244;50.828;4.718;2022-07-04T03:40:33;1.57;;;1.47;;
18239;SDS011;9244;50.828;4.718;2022-07-04T03:43:00;1.80;;;1.40;;
18239;SDS011;9244;50.828;4.718;2022-07-04T03:45:27;1.83;;;1.13;;
18239;SDS011;9244;50.828;4.718;2022-07-04T03:47:52;1.33;;;1.23;;
18239;SDS011;9244;50.828;4.718;2022-07-04T03:50:18;2.03;;;1.67;;
18239;SDS011;9244;50.828;4.718;2022-07-04T03:52:44;1.47;;;1.37;;
18239;SDS011;9244;50.828;4.718;2022-07-04T03:55:10;2.87;;;1.70;;
18239;SDS011;9244;50.828;4.718;2022-07-04T03:57:36;4.20;;;1.30;;
18239;SDS011;9244;50.828;4.718;2022-07-04T04:00:02;2.20;;;1.30;;
18239;SDS011;9244;50.828;4.718;2022-07-04T04:02:28;1.13;;;1.10;;
18239;SDS011;9244;50.828;4.718;2022-07-04T04:04:54;2.10;;;1.27;;
18239;SDS011;9244;50.828;4.718;2022-07-04T04:07:38;2.43;;;1.40;;
18239;SDS011;9244;50.828;4.718;2022-07-04T04:10:04;2.27;;;1.30;;
18239;SDS011;9244;50.828;4.718;2022-07-04T04:12:30;3.73;;;1.57;;
18239;SDS011;9244;50.828;4.718;2022-07-04T04:14:56;2.57;;;1.50;;
18239;SDS011;9244;50.828;4.718;2022-07-04T04:17:21;1.63;;;1.13;;
18239;SDS011;9244;50.828;4.718;2022-07-04T04:19:47;1.20;;;1.10;;
18239;SDS011;9244;50.828;4.718;2022-07-04T04:22:13;2.17;;;1.30;;
18239;SDS011;9244;50.828;4.718;2022-07-04T04:24:38;1.40;;;1.30;;
18239;SDS011;9244;50.828;4.718;2022-07-04T04:27:04;1.87;;;1.20;;
18239;SDS011;9244;50.828;4.718;2022-07-04T04:29:30;1.63;;;1.30;;
18239;SDS011;9244;50.828;4.718;2022-07-04T04:31:55;1.10;;;1.07;;
18239;SDS011;9244;50.828;4.718;2022-07-04T04:34:21;2.23;;;1.47;;
18239;SDS011;9244;50.828;4.718;2022-07-04T04:36:47;1.70;;;1.20;;
18239;SDS011;9244;50.828;4.718;2022-07-04T04:39:12;1.57;;;1.40;;
18239;SDS011;9244;50.828;4.718;2022-07-04T04:41:38;2.10;;;2.00;;
18239;SDS011;9244;50.828;4.718;2022-07-04T04:44:04;1.37;;;1.27;;
18239;SDS011;9244;50.828;4.718;2022-07-04T04:46:30;1.80;;;1.60;;
18239;SDS011;9244;50.828;4.718;2022-07-04T04:48:56;2.43;;;1.90;;
18239;SDS011;9244;50.828;4.718;2022-07-04T04:51:21;2.70;;;1.43;;
18239;SDS011;9244;50.828;4.718;2022-07-04T04:53:47;2.90;;;1.47;;
18239;SDS011;9244;50.828;4.718;2022-07-04T04:56:13;2.60;;;1.67;;
18239;SDS011;9244;50.828;4.718;2022-07-04T04:58:39;3.63;;;1.97;;
18239;SDS011;9244;50.828;4.718;2022-07-04T05:01:05;1.60;;;1.50;;
18239;SDS011;9244;50.828;4.718;2022-07-04T05:03:31;2.87;;;1.90;;
18239;SDS011;9244;50.828;4.718;2022-07-04T05:05:56;1.67;;;1.57;;
18239;SDS011;9244;50.828;4.718;2022-07-04T05:08:22;2.10;;;1.57;;
18239;SDS011;9244;50.828;4.718;2022-07-04T05:10:50;2.23;;;1.53;;
18239;SDS011;9244;50.828;4.718;2022-07-04T05:13:16;2.47;;;1.60;;
18239;SDS011;9244;50.828;4.718;2022-07-04T05:15:42;3.77;;;1.57;;
18239;SDS011;9244;50.828;4.718;2022-07-04T05:18:08;1.30;;;1.20;;
18239;SDS011;9244;50.828;4.718;2022-07-04T05:20:33;1.97;;;1.40;;
18239;SDS011;9244;50.828;4.718;2022-07-04T05:22:59;3.27;;;1.50;;
18239;SDS011;9244;50.828;4.718;2022-07-04T05:25:25;1.50;;;1.40;;
18239;SDS011;9244;50.828;4.718;2022-07-04T05:27:50;2.07;;;1.43;;
18239;SDS011;9244;50.828;4.718;2022-07-04T05:30:16;1.80;;;1.33;;
18239;SDS011;9244;50.828;4.718;2022-07-04T05:32:42;2.03;;;1.27;;
18239;SDS011;9244;50.828;4.718;2022-07-04T05:35:07;1.15;;;0.82;;
18239;SDS011;9244;50.828;4.718;2022-07-04T05:37:34;0.82;;;0.77;;
18239;SDS011;9244;50.828;4.718;2022-07-04T05:40:00;1.75;;;0.82;;
18239;SDS011;9244;50.828;4.718;2022-07-04T05:42:26;0.93;;;0.68;;
18239;SDS011;9244;50.828;4.718;2022-07-04T05:44:53;1.95;;;0.80;;
18239;SDS011;9244;50.828;4.718;2022-07-04T05:47:18;1.70;;;1.10;;
18239;SDS011;9244;50.828;4.718;2022-07-04T05:49:48;1.48;;;0.70;;
18239;SDS011;9244;50.828;4.718;2022-07-04T05:52:14;2.47;;;0.80;;
18239;SDS011;9244;50.828;4.718;2022-07-04T05:54:40;1.30;;;0.70;;
18239;SDS011;9244;50.828;4.718;2022-07-04T05:57:06;0.95;;;0.70;;
18239;SDS011;9244;50.828;4.718;2022-07-04T05:59:31;2.97;;;0.90;;
18239;SDS011;9244;50.828;4.718;2022-07-04T06:01:57;1.98;;;0.88;;
18239;SDS011;9244;50.828;4.718;2022-07-04T06:04:22;1.17;;;0.60;;
18239;SDS011;9244;50.828;4.718;2022-07-04T06:06:48;1.67;;;0.63;;
18239;SDS011;9244;50.828;4.718;2022-07-04T06:09:14;1.45;;;0.93;;
18239;SDS011;9244;50.828;4.718;2022-07-04T06:11:39;1.67;;;1.23;;
18239;SDS011;9244;50.828;4.718;2022-07-04T06:14:05;0.80;;;0.70;;
18239;SDS011;9244;50.828;4.718;2022-07-04T06:16:31;3.22;;;0.75;;
18239;SDS011;9244;50.828;4.718;2022-07-04T06:18:56;0.80;;;0.70;;
18239;SDS011;9244;50.828;4.718;2022-07-04T06:21:22;0.77;;;0.60;;
18239;SDS011;9244;50.828;4.718;2022-07-04T06:23:47;1.77;;;0.70;;
18239;SDS011;9244;50.828;4.718;2022-07-04T06:26:13;1.85;;;0.88;;
18239;SDS011;9244;50.828;4.718;2022-07-04T06:28:39;1.15;;;0.70;;
18239;SDS011;9244;50.828;4.718;2022-07-04T06:31:04;0.50;;;0.50;;
18239;SDS011;9244;50.828;4.718;2022-07-04T06:33:30;1.75;;;0.90;;
18239;SDS011;9244;50.828;4.718;2022-07-04T06:35:56;0.98;;;0.60;;
18239;SDS011;9244;50.828;4.718;2022-07-04T06:38:23;1.90;;;0.85;;
18239;SDS011;9244;50.828;4.718;2022-07-04T06:40:53;2.25;;;0.70;;
18239;SDS011;9244;50.828;4.718;2022-07-04T06:43:19;1.45;;;0.65;;
18239;SDS011;9244;50.828;4.718;2022-07-04T06:45:45;2.65;;;0.70;;
18239;SDS011;9244;50.828;4.718;2022-07-04T06:48:11;1.48;;;0.75;;
18239;SDS011;9244;50.828;4.718;2022-07-04T06:50:36;1.90;;;1.00;;
18239;SDS011;9244;50.828;4.718;2022-07-04T06:53:03;1.30;;;0.57;;
18239;SDS011;9244;50.828;4.718;2022-07-04T06:55:31;1.38;;;0.70;;
18239;SDS011;9244;50.828;4.718;2022-07-04T06:57:57;1.83;;;0.63;;
18239;SDS011;9244;50.828;4.718;2022-07-04T07:00:23;0.93;;;0.77;;
18239;SDS011;9244;50.828;4.718;2022-07-04T07:02:49;1.63;;;0.75;;
18239;SDS011;9244;50.828;4.718;2022-07-04T07:05:18;1.33;;;0.75;;
18239;SDS011;9244;50.828;4.718;2022-07-04T07:07:44;0.68;;;0.60;;
18239;SDS011;9244;50.828;4.718;2022-07-04T07:10:09;3.60;;;0.80;;
18239;SDS011;9244;50.828;4.718;2022-07-04T07:12:35;2.05;;;0.65;;
18239;SDS011;9244;50.828;4.718;2022-07-04T07:15:01;0.93;;;0.60;;
18239;SDS011;9244;50.828;4.718;2022-07-04T07:17:27;1.98;;;0.80;;
18239;SDS011;9244;50.828;4.718;2022-07-04T07:19:53;0.95;;;0.60;;
18239;SDS011;9244;50.828;4.718;2022-07-04T07:22:19;1.17;;;0.70;;
18239;SDS011;9244;50.828;4.718;2022-07-04T07:24:45;1.40;;;0.80;;
18239;SDS011;9244;50.828;4.718;2022-07-04T07:27:11;1.83;;;0.90;;
18239;SDS011;9244;50.828;4.718;2022-07-04T07:29:36;2.03;;;0.90;;
18239;SDS011;9244;50.828;4.718;2022-07-04T07:32:03;2.10;;;0.70;;
18239;SDS011;9244;50.828;4.718;2022-07-04T07:34:29;0.98;;;0.90;;
18239;SDS011;9244;50.828;4.718;2022-07-04T07:36:55;2.65;;;1.13;;
18239;SDS011;9244;50.828;4.718;2022-07-04T07:39:21;0.77;;;0.68;;
18239;SDS011;9244;50.828;4.718;2022-07-04T07:41:47;0.60;;;0.60;;
18239;SDS011;9244;50.828;4.718;2022-07-04T07:44:13;1.70;;;0.80;;
18239;SDS011;9244;50.828;4.718;2022-07-04T07:46:38;1.77;;;0.50;;
18239;SDS011;9244;50.828;4.718;2022-07-04T07:49:05;4.90;;;1.33;;
18239;SDS011;9244;50.828;4.718;2022-07-04T07:51:31;2.97;;;0.80;;
18239;SDS011;9244;50.828;4.718;2022-07-04T07:53:56;1.15;;;0.60;;
18239;SDS011;9244;50.828;4.718;2022-07-04T07:56:22;1.42;;;0.70;;
18239;SDS011;9244;50.828;4.718;2022-07-04T07:58:48;0.75;;;0.55;;
18239;SDS011;9244;50.828;4.718;2022-07-04T08:01:14;1.95;;;0.93;;
18239;SDS011;9244;50.828;4.718;2022-07-04T08:03:40;1.20;;;0.90;;
18239;SDS011;9244;50.828;4.718;2022-07-04T08:06:24;0.70;;;0.57;;
18239;SDS011;9244;50.828;4.718;2022-07-04T08:08:50;0.70;;;0.50;;
18239;SDS011;9244;50.828;4.718;2022-07-04T08:11:16;0.63;;;0.50;;
18239;SDS011;9244;50.828;4.718;2022-07-04T08:13:41;1.98;;;0.70;;
18239;SDS011;9244;50.828;4.718;2022-07-04T08:16:07;1.63;;;0.63;;
18239;SDS011;9244;50.828;4.718;2022-07-04T08:18:34;1.48;;;0.75;;
18239;SDS011;9244;50.828;4.718;2022-07-04T08:20:59;1.13;;;0.70;;
18239;SDS011;9244;50.828;4.718;2022-07-04T08:23:26;1.85;;;0.80;;
18239;SDS011;9244;50.828;4.718;2022-07-04T08:25:53;2.05;;;0.60;;
18239;SDS011;9244;50.828;4.718;2022-07-04T08:28:18;1.73;;;0.80;;
18239;SDS011;9244;50.828;4.718;2022-07-04T08:30:44;1.20;;;0.70;;
18239;SDS011;9244;50.828;4.718;2022-07-04T08:33:10;0.63;;;0.63;;
18239;SDS011;9244;50.828;4.718;2022-07-04T08:35:35;0.90;;;0.70;;
18239;SDS011;9244;50.828;4.718;2022-07-04T08:38:01;1.67;;;0.75;;
18239;SDS011;9244;50.828;4.718;2022-07-04T08:40:27;1.30;;;0.80;;
18239;SDS011;9244;50.828;4.718;2022-07-04T08:42:55;2.38;;;0.70;;
18239;SDS011;9244;50.828;4.718;2022-07-04T08:45:28;1.85;;;0.82;;
18239;SDS011;9244;50.828;4.718;2022-07-04T08:48:04;0.68;;;0.65;;
18239;SDS011;9244;50.828;4.718;2022-07-04T08:50:33;1.13;;;0.60;;
18239;SDS011;9244;50.828;4.718;2022-07-04T08:53:02;0.68;;;0.60;;
18239;SDS011;9244;50.828;4.718;2022-07-04T08:55:34;0.70;;;0.40;;
18239;SDS011;9244;50.828;4.718;2022-07-04T08:58:19;1.27;;;0.85;;
18239;SDS011;9244;50.828;4.718;2022-07-04T09:00:55;1.20;;;0.82;;
18239;SDS011;9244;50.828;4.718;2022-07-04T09:03:25;2.08;;;0.70;;
18239;SDS011;9244;50.828;4.718;2022-07-04T09:05:52;1.48;;;0.75;;
18239;SDS011;9244;50.828;4.718;2022-07-04T09:08:19;1.60;;;0.70;;
18239;SDS011;9244;50.828;4.718;2022-07-04T09:10:45;1.33;;;0.50;;
18239;SDS011;9244;50.828;4.718;2022-07-04T09:13:12;1.17;;;0.60;;
18239;SDS011;9244;50.828;4.718;2022-07-04T09:15:42;1.90;;;0.80;;
18239;SDS011;9244;50.828;4.718;2022-07-04T09:18:23;0.40;;;0.40;;
18239;SDS011;9244;50.828;4.718;2022-07-04T09:20:55;1.02;;;0.50;;
18239;SDS011;9244;50.828;4.718;2022-07-04T09:23:23;1.55;;;1.02;;
18239;SDS011;9244;50.828;4.718;2022-07-04T09:26:08;2.80;;;0.98;;
18239;SDS011;9244;50.828;4.718;2022-07-04T09:28:42;0.75;;;0.52;;
18239;SDS011;9244;50.828;4.718;2022-07-04T09:31:25;1.17;;;0.50;;
18239;SDS011;9244;50.828;4.718;2022-07-04T09:33:56;3.13;;;0.50;;
18239;SDS011;9244;50.828;4.718;2022-07-04T09:36:29;1.60;;;1.33;;
18239;SDS011;9244;50.828;4.718;2022-07-04T09:39:10;1.30;;;1.20;;
18239;SDS011;9244;50.828;4.718;2022-07-04T09:44:20;1.40;;;1.27;;
18239;SDS011;9244;50.828;4.718;2022-07-04T09:46:47;1.35;;;1.25;;
18239;SDS011;9244;50.828;4.718;2022-07-04T09:49:13;2.58;;;1.38;;
18239;SDS011;9244;50.828;4.718;2022-07-04T09:51:43;1.92;;;1.23;;
18239;SDS011;9244;50.828;4.718;2022-07-04T09:56:43;1.80;;;1.30;;
18239;SDS011;9244;50.828;4.718;2022-07-04T09:59:11;1.48;;;1.30;;
18239;SDS011;9244;50.828;4.718;2022-07-04T10:01:37;2.55;;;1.73;;
18239;SDS011;9244;50.828;4.718;2022-07-04T10:04:04;2.33;;;1.30;;
18239;SDS011;9244;50.828;4.718;2022-07-04T10:06:31;1.50;;;1.40;;
18239;SDS011;9244;50.828;4.718;2022-07-04T10:09:15;1.50;;;1.40;;
18239;SDS011;9244;50.828;4.718;2022-07-04T10:11:43;1.50;;;1.40;;
18239;SDS011;9244;50.828;4.718;2022-07-04T10:14:11;2.55;;;1.50;;
18239;SDS011;9244;50.828;4.718;2022-07-04T10:16:38;4.32;;;2.13;;
18239;SDS011;9244;50.828;4.718;2022-07-04T10:19:05;2.42;;;1.42;;
18239;SDS011;9244;50.828;4.718;2022-07-04T10:21:32;1.40;;;1.30;;
18239;SDS011;9244;50.828;4.718;2022-07-04T10:23:58;1.73;;;1.35;;
18239;SDS011;9244;50.828;4.718;2022-07-04T10:26:24;1.80;;;1.40;;
18239;SDS011;9244;50.828;4.718;2022-07-04T10:28:52;3.05;;;1.77;;
18239;SDS011;9244;50.828;4.718;2022-07-04T10:31:19;1.80;;;1.48;;
18239;SDS011;9244;50.828;4.718;2022-07-04T10:33:47;2.55;;;1.75;;
18239;SDS011;9244;50.828;4.718;2022-07-04T10:36:18;2.22;;;1.55;;
18239;SDS011;9244;50.828;4.718;2022-07-04T10:41:15;1.88;;;1.30;;
18239;SDS011;9244;50.828;4.718;2022-07-04T10:51:13;1.33;;;1.23;;
18239;SDS011;9244;50.828;4.718;2022-07-04T10:58:55;1.38;;;1.15;;
18239;SDS011;9244;50.828;4.718;2022-07-04T11:01:24;2.20;;;1.48;;
18239;SDS011;9244;50.828;4.718;2022-07-04T11:03:51;1.42;;;1.33;;
18239;SDS011;9244;50.828;4.718;2022-07-04T11:14:32;2.55;;;1.27;;
18239;SDS011;9244;50.828;4.718;2022-07-04T11:19:38;1.30;;;1.10;;
18239;SDS011;9244;50.828;4.718;2022-07-04T11:22:05;1.38;;;1.27;;
18239;SDS011;9244;50.828;4.718;2022-07-04T11:24:32;2.28;;;2.08;;
18239;SDS011;9244;50.828;4.718;2022-07-04T11:26:58;2.45;;;2.25;;
18239;SDS011;9244;50.828;4.718;2022-07-04T11:29:25;4.05;;;2.55;;
18239;SDS011;9244;50.828;4.718;2022-07-04T11:31:51;2.92;;;2.47;;
18239;SDS011;9244;50.828;4.718;2022-07-04T11:34:17;2.50;;;2.30;;
18239;SDS011;9244;50.828;4.718;2022-07-04T11:36:44;3.00;;;2.28;;
18239;SDS011;9244;50.828;4.718;2022-07-04T11:39:13;2.60;;;2.10;;
18239;SDS011;9244;50.828;4.718;2022-07-04T11:41:46;5.60;;;4.32;;
18239;SDS011;9244;50.828;4.718;2022-07-04T11:44:35;4.72;;;3.22;;
18239;SDS011;9244;50.828;4.718;2022-07-04T11:47:24;5.60;;;4.05;;
18239;SDS011;9244;50.828;4.718;2022-07-04T11:50:10;4.43;;;3.63;;
18239;SDS011;9244;50.828;4.718;2022-07-04T11:52:42;5.60;;;3.70;;
18239;SDS011;9244;50.828;4.718;2022-07-04T11:55:10;3.38;;;2.65;;
18239;SDS011;9244;50.828;4.718;2022-07-04T11:57:38;4.50;;;3.60;;
18239;SDS011;9244;50.828;4.718;2022-07-04T12:00:09;5.30;;;3.67;;
18239;SDS011;9244;50.828;4.718;2022-07-04T12:02:43;5.90;;;3.60;;
18239;SDS011;9244;50.828;4.718;2022-07-04T12:05:11;4.43;;;3.47;;
18239;SDS011;9244;50.828;4.718;2022-07-04T12:07:38;6.15;;;3.70;;
18239;SDS011;9244;50.828;4.718;2022-07-04T12:10:15;5.80;;;3.92;;
18239;SDS011;9244;50.828;4.718;2022-07-04T12:12:56;3.92;;;3.13;;
18239;SDS011;9244;50.828;4.718;2022-07-04T12:15:40;3.00;;;2.45;;
18239;SDS011;9244;50.828;4.718;2022-07-04T12:18:20;3.97;;;2.70;;
18239;SDS011;9244;50.828;4.718;2022-07-04T12:20:50;2.40;;;2.20;;
18239;SDS011;9244;50.828;4.718;2022-07-04T12:23:24;2.20;;;2.00;;
18239;SDS011;9244;50.828;4.718;2022-07-04T12:25:51;2.17;;;1.98;;
18239;SDS011;9244;50.828;4.718;2022-07-04T12:28:17;2.25;;;2.05;;
18239;SDS011;9244;50.828;4.718;2022-07-04T12:30:51;2.65;;;2.10;;
18239;SDS011;9244;50.828;4.718;2022-07-04T12:33:21;1.70;;;1.60;;
18239;SDS011;9244;50.828;4.718;2022-07-04T12:35:48;1.80;;;1.70;;
18239;SDS011;9244;50.828;4.718;2022-07-04T12:38:19;1.63;;;1.52;;
18239;SDS011;9244;50.828;4.718;2022-07-04T12:41:03;3.03;;;1.60;;
18239;SDS011;9244;50.828;4.718;2022-07-04T12:46:10;1.42;;;1.33;;
18239;SDS011;9244;50.828;4.718;2022-07-04T12:48:38;1.80;;;1.65;;
18239;SDS011;9244;50.828;4.718;2022-07-04T12:51:18;1.85;;;1.02;;
18239;SDS011;9244;50.828;4.718;2022-07-04T12:53:52;1.60;;;1.25;;
18239;SDS011;9244;50.828;4.718;2022-07-04T12:56:35;1.10;;;1.10;;
18239;SDS011;9244;50.828;4.718;2022-07-04T12:59:21;1.63;;;1.20;;
18239;SDS011;9244;50.828;4.718;2022-07-04T13:01:46;1.50;;;1.38;;
18239;SDS011;9244;50.828;4.718;2022-07-04T13:04:12;1.38;;;1.25;;
18239;SDS011;9244;50.828;4.718;2022-07-04T13:06:38;1.33;;;1.25;;
18239;SDS011;9244;50.828;4.718;2022-07-04T13:09:05;1.05;;;1.05;;
18239;SDS011;9244;50.828;4.718;2022-07-04T13:11:32;1.88;;;1.30;;
18239;SDS011;9244;50.828;4.718;2022-07-04T13:14:17;1.00;;;1.00;;
18239;SDS011;9244;50.828;4.718;2022-07-04T13:16:43;1.00;;;1.00;;
18239;SDS011;9244;50.828;4.718;2022-07-04T13:19:09;1.20;;;1.10;;
18239;SDS011;9244;50.828;4.718;2022-07-04T13:21:35;1.42;;;1.00;;
18239;SDS011;9244;50.828;4.718;2022-07-04T13:24:01;1.30;;;1.20;;
18239;SDS011;9244;50.828;4.718;2022-07-04T13:26:26;1.15;;;1.02;;
18239;SDS011;9244;50.828;4.718;2022-07-04T13:28:55;1.30;;;1.10;;
18239;SDS011;9244;50.828;4.718;2022-07-04T13:31:21;1.20;;;1.00;;
18239;SDS011;9244;50.828;4.718;2022-07-04T13:33:46;1.50;;;1.20;;
18239;SDS011;9244;50.828;4.718;2022-07-04T13:36:12;1.17;;;1.05;;
18239;SDS011;9244;50.828;4.718;2022-07-04T13:38:39;1.65;;;1.55;;
18239;SDS011;9244;50.828;4.718;2022-07-04T13:41:05;1.45;;;1.30;;
18239;SDS011;9244;50.828;4.718;2022-07-04T13:43:31;1.65;;;1.08;;
18239;SDS011;9244;50.828;4.718;2022-07-04T13:45:57;0.98;;;0.98;;
18239;SDS011;9244;50.828;4.718;2022-07-04T13:48:23;1.20;;;1.10;;
18239;SDS011;9244;50.828;4.718;2022-07-04T13:50:49;0.90;;;0.90;;
18239;SDS011;9244;50.828;4.718;2022-07-04T13:53:15;3.50;;;1.10;;
18239;SDS011;9244;50.828;4.718;2022-07-04T13:55:41;1.35;;;1.08;;
18239;SDS011;9244;50.828;4.718;2022-07-04T13:58:07;1.27;;;1.15;;
18239;SDS011;9244;50.828;4.718;2022-07-04T14:00:33;2.30;;;1.10;;
18239;SDS011;9244;50.828;4.718;2022-07-04T14:03:00;1.23;;;1.10;;
18239;SDS011;9244;50.828;4.718;2022-07-04T14:05:26;1.08;;;0.98;;
18239;SDS011;9244;50.828;4.718;2022-07-04T14:07:52;1.38;;;1.02;;
18239;SDS011;9244;50.828;4.718;2022-07-04T14:10:19;1.40;;;1.30;;
18239;SDS011;9244;50.828;4.718;2022-07-04T14:12:45;2.35;;;1.45;;
18239;SDS011;9244;50.828;4.718;2022-07-04T14:15:11;1.95;;;1.20;;
18239;SDS011;9244;50.828;4.718;2022-07-04T14:17:37;1.23;;;1.10;;
18239;SDS011;9244;50.828;4.718;2022-07-04T14:20:04;1.30;;;1.20;;
18239;SDS011;9244;50.828;4.718;2022-07-04T14:22:30;1.98;;;1.40;;
18239;SDS011;9244;50.828;4.718;2022-07-04T14:24:56;1.30;;;1.20;;
18239;SDS011;9244;50.828;4.718;2022-07-04T14:27:22;1.33;;;1.10;;
18239;SDS011;9244;50.828;4.718;2022-07-04T14:29:47;1.73;;;1.20;;
18239;SDS011;9244;50.828;4.718;2022-07-04T14:32:14;1.00;;;1.00;;
18239;SDS011;9244;50.828;4.718;2022-07-04T14:34:39;1.20;;;1.20;;
18239;SDS011;9244;50.828;4.718;2022-07-04T14:37:05;1.27;;;1.17;;
18239;SDS011;9244;50.828;4.718;2022-07-04T14:39:31;1.10;;;1.10;;
18239;SDS011;9244;50.828;4.718;2022-07-04T14:41:57;1.20;;;1.20;;
18239;SDS011;9244;50.828;4.718;2022-07-04T14:44:22;1.02;;;1.02;;
18239;SDS011;9244;50.828;4.718;2022-07-04T14:46:48;1.10;;;1.10;;
18239;SDS011;9244;50.828;4.718;2022-07-04T14:49:13;1.52;;;1.20;;
18239;SDS011;9244;50.828;4.718;2022-07-04T14:51:39;2.40;;;1.00;;
18239;SDS011;9244;50.828;4.718;2022-07-04T14:54:08;1.10;;;1.10;;
18239;SDS011;9244;50.828;4.718;2022-07-04T14:56:35;1.30;;;1.30;;
18239;SDS011;9244;50.828;4.718;2022-07-04T14:59:01;1.20;;;1.20;;
18239;SDS011;9244;50.828;4.718;2022-07-04T15:01:27;1.42;;;1.30;;
18239;SDS011;9244;50.828;4.718;2022-07-04T15:03:53;2.05;;;1.20;;
18239;SDS011;9244;50.828;4.718;2022-07-04T15:06:19;1.17;;;1.00;;
18239;SDS011;9244;50.828;4.718;2022-07-04T15:08:45;1.20;;;1.20;;
18239;SDS011;9244;50.828;4.718;2022-07-04T15:11:10;1.08;;;1.08;;
18239;SDS011;9244;50.828;4.718;2022-07-04T15:13:36;1.15;;;1.15;;
18239;SDS011;9244;50.828;4.718;2022-07-04T15:16:02;1.25;;;1.10;;
18239;SDS011;9244;50.828;4.718;2022-07-04T15:18:27;1.25;;;1.15;;
18239;SDS011;9244;50.828;4.718;2022-07-04T15:20:53;1.00;;;1.00;;
18239;SDS011;9244;50.828;4.718;2022-07-04T15:23:37;1.70;;;1.00;;
18239;SDS011;9244;50.828;4.718;2022-07-04T15:26:21;1.13;;;1.10;;
18239;SDS011;9244;50.828;4.718;2022-07-04T15:28:47;1.45;;;1.35;;
18239;SDS011;9244;50.828;4.718;2022-07-04T15:31:12;1.95;;;1.10;;
18239;SDS011;9244;50.828;4.718;2022-07-04T15:33:38;1.42;;;1.10;;
18239;SDS011;9244;50.828;4.718;2022-07-04T15:36:04;1.13;;;1.13;;